Portada
METAR-TAF:

METAR-TAF

Aeroports :

Donegal, Irlanda

latitud: 55-02-39N, longitud: 8-20-28W, altitud: 9 m

Observació

L'informe es va fer fa 5 hores i 48 minuts, a les 20:00 UTC
Vent 7 kt del Sud/Sud-Est
Temperatura 1°C
Humitat 93%
Pressió 986 hPa
Visibilitat 10 km o més
Escasses núvols a una alçada de 4800 ft

METAR: EIDL 152000Z 16007KT 9999 FEW048 01/M00 Q0986

Hora: 01:48 (01:48 UTC)

Pronòstic

L'informe es va fer fa 8 hores i 48 minuts, a les 17:00 UTC
Pronòstic vàlid del 15 a les 18 UTC al 16 a les 03 UTC
Vent 8 kt del Sud/Sud-Est
Visibilitat 10 km o més
Núvols disperses a una alçada de 4000 ft

TAF: EIDL 151700Z 1518/1603 15008KT 9999 SCT040

Observacions i pronòstics meteorològics de més de 4000 aeroports (METAR i TAF).

Les estacions disponibles són els punts grocs i vermells al mapa.

Posi el ratolí al punt desitjat per veure el nom de l'estació.

Feu clic per veure les observacions i els pronòstics meteorològics.

Per canviar el mapa: feu clic els botons verds amb una creu de color negre per apropar; al botó verd amb un guió per allunyar la imatge; o en les fletxes verdes per a mapes adjacents.


METAR-TAF: